Aviation Digital Data Service (ADDS)

Output produced by METARs form (1554 UTC 23 April 2017)
found at http://www.aviationweather.gov/adds/metars/
 
FIMR 231500Z 01007KT 9999 FEW018 BKN250 27/23 Q1014
TAF FIMR 231140Z 2312/2406 33008KT 9999 SCT018 
     PROB30 
     TEMPO 2315/2406 7000 -SHRA FEW010 BKN016 BKN050
       
FIMP 231500Z 00000KT 9999 VCSH SCT015 BKN250 26/23 Q1013
TAF FIMP 231135Z 2312/2418 15008KT 9999 SCT018 
     PROB30 
     TEMPO 2315/2404 7000 -SHRA FEW010 BKN016 BKN050